San Juan, Puerto Rico

5:50 PM AST on February 01, 2015 (GMT -0400)
AESPR, Puerto Nuevo | Change Station
CLOSE
Current Station
Personal Weather Station
Location: San Juan, PR
Elevation: 33 ft
Nearby Weather Stations

Elev 33 ft 18.41 °N, 66.09 °W | Updated 268 days ago

Rain
Rain
80 °F
Feels Like 80 °F
N
12
Wind Variable Wind from ENE
Gusts 14 mph

Today
High -- | Low -- °F
--% Chance of Precip.
Yesterday
High -- | Low -- °F
Precip. -- in
6:57 AM 6:18 PM
Waxing Gibbous, 96% visible
Pressure 30.06 in
Visibility 10.0 miles
Clouds Few 2600 ft
Scattered Clouds 5000 ft
Dew Point 70 °F
Humidity 68%
Rainfall 0.20 in
Snow Depth Not available.
UV 1 out of 12
Pollen Not available.
Air Quality Not available.
Flu Activity Not available.
METAR TJSJ 012056Z 05013KT 10SM FEW026 SCT050 26/19 A3006 RMK AO2 SLP178 T02610194 55006

More Conditions Fewer Conditions

Pressure 30.06 in
Visibility 10.0 miles
Clouds Few 2600 ft
Scattered Clouds 5000 ft
Dew Point 70 °F
Humidity 68%
Rainfall 0.20 in
Snow Depth Not available.
UV 1 out of 12
Pollen Not available.
Air Quality Not available.
Flu Activity Not available.
METAR TJSJ 012056Z 05013KT 10SM FEW026 SCT050 26/19 A3006 RMK AO2 SLP178 T02610194 55006

More Conditions Fewer Conditions

10-Day Weather Forecast

Almanac

Astronomy

Feb. 01, 2015 Rise Set
Actual Time
Civil Twilight
Nautical Twilight
Astronomical Twilight
Moon
Length of Visible Light
Length of Day
Tomorrow will be .
, % of the Moon is Illuminated

Today's Extremes

Country Highs Country Lows

Community

WunderPhotos

Upload Photos

1,792,555 photos uploaded!

WunderBlogs® & News

Nearby

Air Quality

  Air Quality AQ Index Pollutant
Not available.

Snow Depth

Station Depth Elevation

Earthquake Activity

City Distance Mag. Time & Date
Minimum magnitude displayed is 2.5.

Coastal Water Temperatures

Place Temperature

Nearby Weather Stations